Airport, Ohio
Current Conditions -  °F | °C
As of 12:52 AM on Monday 20 Oct 2014 (Local Time) from KCVG Reporting Station
Overcast Overcast  
Wind Chill: 44°   Ceiling: 20000
Heat Index: 46°   Visibility: 9mi
Dew Point: 40°   Wind: 5mph
Humidity: 79%   Direction: 220°SW
Pressure: 30.05"   Gusts: NA
Location:  39.0588°N, 84.6513°W
Report Text: KCVG 200452Z 22004KT 9SM BKN200 OVC250 08/04 A3005 RMK AO2 SLP176 T00780044 401440050
Loading
Personal Weather Stations






























Interactive Weather Map
Tropical Storm Tracking
New forecast layout! Learn more

10-Day Weather Forecast

Advertisements
Track Severe Weather on mobile